sensor_id;sensor_type;location;lat;lon;timestamp;P1;durP1;ratioP1;P2;durP2;ratioP2
42200;SDS011;27869;51.442;7.540;2023-07-29T00:02:19;4.65;;;1.30;;
42200;SDS011;27869;51.442;7.540;2023-07-29T00:04:46;4.30;;;1.30;;
42200;SDS011;27869;51.442;7.540;2023-07-29T00:07:12;4.82;;;1.40;;
42200;SDS011;27869;51.442;7.540;2023-07-29T00:09:39;5.60;;;1.30;;
42200;SDS011;27869;51.442;7.540;2023-07-29T00:12:06;3.03;;;1.40;;
42200;SDS011;27869;51.442;7.540;2023-07-29T00:14:39;4.47;;;1.65;;
42200;SDS011;27869;51.442;7.540;2023-07-29T00:17:06;4.72;;;1.50;;
42200;SDS011;27869;51.442;7.540;2023-07-29T00:19:33;6.15;;;1.50;;
42200;SDS011;27869;51.442;7.540;2023-07-29T00:22:00;7.00;;;1.67;;
42200;SDS011;27869;51.442;7.540;2023-07-29T00:24:26;5.50;;;1.58;;
42200;SDS011;27869;51.442;7.540;2023-07-29T00:26:53;4.45;;;1.40;;
42200;SDS011;27869;51.442;7.540;2023-07-29T00:29:20;6.63;;;1.63;;
42200;SDS011;27869;51.442;7.540;2023-07-29T00:31:48;6.15;;;1.60;;
42200;SDS011;27869;51.442;7.540;2023-07-29T00:34:15;5.70;;;1.60;;
42200;SDS011;27869;51.442;7.540;2023-07-29T00:39:11;5.55;;;1.70;;
42200;SDS011;27869;51.442;7.540;2023-07-29T00:41:38;4.97;;;1.65;;
42200;SDS011;27869;51.442;7.540;2023-07-29T00:44:05;3.75;;;1.52;;
42200;SDS011;27869;51.442;7.540;2023-07-29T00:46:33;5.70;;;1.55;;
42200;SDS011;27869;51.442;7.540;2023-07-29T00:49:04;3.40;;;1.48;;
42200;SDS011;27869;51.442;7.540;2023-07-29T00:51:31;4.03;;;1.50;;
42200;SDS011;27869;51.442;7.540;2023-07-29T00:53:58;4.43;;;1.50;;
42200;SDS011;27869;51.442;7.540;2023-07-29T00:56:24;3.45;;;1.52;;
42200;SDS011;27869;51.442;7.540;2023-07-29T00:58:51;5.50;;;1.63;;
42200;SDS011;27869;51.442;7.540;2023-07-29T01:01:23;4.75;;;1.73;;
42200;SDS011;27869;51.442;7.540;2023-07-29T01:03:50;4.45;;;1.60;;
42200;SDS011;27869;51.442;7.540;2023-07-29T01:06:21;4.82;;;1.70;;
42200;SDS011;27869;51.442;7.540;2023-07-29T01:08:55;5.20;;;1.60;;
42200;SDS011;27869;51.442;7.540;2023-07-29T01:11:30;4.25;;;1.70;;
42200;SDS011;27869;51.442;7.540;2023-07-29T01:14:05;5.10;;;1.55;;
42200;SDS011;27869;51.442;7.540;2023-07-29T01:16:45;5.95;;;1.70;;
42200;SDS011;27869;51.442;7.540;2023-07-29T01:19:20;3.75;;;1.48;;
42200;SDS011;27869;51.442;7.540;2023-07-29T01:22:02;7.47;;;1.92;;
42200;SDS011;27869;51.442;7.540;2023-07-29T01:24:31;4.88;;;1.85;;
42200;SDS011;27869;51.442;7.540;2023-07-29T01:26:58;6.65;;;1.80;;
42200;SDS011;27869;51.442;7.540;2023-07-29T01:29:26;4.95;;;1.75;;
42200;SDS011;27869;51.442;7.540;2023-07-29T01:31:54;6.70;;;1.70;;
42200;SDS011;27869;51.442;7.540;2023-07-29T01:34:26;5.65;;;2.17;;
42200;SDS011;27869;51.442;7.540;2023-07-29T01:36:57;6.40;;;1.95;;
42200;SDS011;27869;51.442;7.540;2023-07-29T01:39:27;3.95;;;1.60;;
42200;SDS011;27869;51.442;7.540;2023-07-29T01:42:00;4.15;;;1.60;;
42200;SDS011;27869;51.442;7.540;2023-07-29T01:44:27;5.00;;;1.60;;
42200;SDS011;27869;51.442;7.540;2023-07-29T01:46:55;6.30;;;1.40;;
42200;SDS011;27869;51.442;7.540;2023-07-29T01:49:21;5.63;;;1.42;;
42200;SDS011;27869;51.442;7.540;2023-07-29T01:51:48;5.30;;;1.60;;
42200;SDS011;27869;51.442;7.540;2023-07-29T01:54:15;3.40;;;1.38;;
42200;SDS011;27869;51.442;7.540;2023-07-29T01:56:42;4.35;;;1.33;;
42200;SDS011;27869;51.442;7.540;2023-07-29T01:59:10;4.10;;;1.50;;
42200;SDS011;27869;51.442;7.540;2023-07-29T02:01:38;3.97;;;1.40;;
42200;SDS011;27869;51.442;7.540;2023-07-29T02:04:05;3.50;;;1.33;;
42200;SDS011;27869;51.442;7.540;2023-07-29T02:06:32;5.78;;;1.23;;
42200;SDS011;27869;51.442;7.540;2023-07-29T02:08:59;3.33;;;1.20;;
42200;SDS011;27869;51.442;7.540;2023-07-29T02:11:25;6.68;;;1.40;;
42200;SDS011;27869;51.442;7.540;2023-07-29T02:13:53;4.40;;;1.20;;
42200;SDS011;27869;51.442;7.540;2023-07-29T02:16:21;5.28;;;1.25;;
42200;SDS011;27869;51.442;7.540;2023-07-29T02:18:48;4.03;;;1.30;;
42200;SDS011;27869;51.442;7.540;2023-07-29T02:21:15;3.90;;;1.38;;
42200;SDS011;27869;51.442;7.540;2023-07-29T02:23:42;4.28;;;1.20;;
42200;SDS011;27869;51.442;7.540;2023-07-29T02:26:09;3.63;;;1.30;;
42200;SDS011;27869;51.442;7.540;2023-07-29T02:28:36;4.72;;;1.30;;
42200;SDS011;27869;51.442;7.540;2023-07-29T02:31:09;3.30;;;1.27;;
42200;SDS011;27869;51.442;7.540;2023-07-29T02:33:43;7.63;;;1.33;;
42200;SDS011;27869;51.442;7.540;2023-07-29T02:36:11;3.78;;;1.13;;
42200;SDS011;27869;51.442;7.540;2023-07-29T02:38:39;5.70;;;1.10;;
42200;SDS011;27869;51.442;7.540;2023-07-29T02:41:06;3.38;;;1.20;;
42200;SDS011;27869;51.442;7.540;2023-07-29T02:43:34;2.88;;;1.00;;
42200;SDS011;27869;51.442;7.540;2023-07-29T02:46:01;3.67;;;1.20;;
42200;SDS011;27869;51.442;7.540;2023-07-29T02:48:28;5.97;;;1.50;;
42200;SDS011;27869;51.442;7.540;2023-07-29T02:50:57;3.67;;;1.20;;
42200;SDS011;27869;51.442;7.540;2023-07-29T02:53:24;2.13;;;1.02;;
42200;SDS011;27869;51.442;7.540;2023-07-29T02:55:51;3.75;;;1.10;;
42200;SDS011;27869;51.442;7.540;2023-07-29T02:58:18;2.95;;;1.02;;
42200;SDS011;27869;51.442;7.540;2023-07-29T03:00:44;3.67;;;1.08;;
42200;SDS011;27869;51.442;7.540;2023-07-29T03:03:13;5.68;;;1.30;;
42200;SDS011;27869;51.442;7.540;2023-07-29T03:05:40;1.83;;;1.05;;
42200;SDS011;27869;51.442;7.540;2023-07-29T03:08:08;3.45;;;1.10;;
42200;SDS011;27869;51.442;7.540;2023-07-29T03:10:35;3.10;;;1.00;;
42200;SDS011;27869;51.442;7.540;2023-07-29T03:13:02;4.13;;;1.10;;
42200;SDS011;27869;51.442;7.540;2023-07-29T03:15:29;2.85;;;1.10;;
42200;SDS011;27869;51.442;7.540;2023-07-29T03:17:56;2.38;;;1.00;;
42200;SDS011;27869;51.442;7.540;2023-07-29T03:20:22;4.28;;;1.10;;
42200;SDS011;27869;51.442;7.540;2023-07-29T03:22:49;2.95;;;1.10;;
42200;SDS011;27869;51.442;7.540;2023-07-29T03:25:18;3.85;;;1.00;;
42200;SDS011;27869;51.442;7.540;2023-07-29T03:27:44;5.30;;;0.98;;
42200;SDS011;27869;51.442;7.540;2023-07-29T03:30:14;3.05;;;1.25;;
42200;SDS011;27869;51.442;7.540;2023-07-29T03:32:43;3.03;;;1.00;;
42200;SDS011;27869;51.442;7.540;2023-07-29T03:35:11;7.95;;;1.05;;
42200;SDS011;27869;51.442;7.540;2023-07-29T03:37:38;3.13;;;1.00;;
42200;SDS011;27869;51.442;7.540;2023-07-29T03:40:05;4.75;;;1.17;;
42200;SDS011;27869;51.442;7.540;2023-07-29T03:42:35;5.63;;;1.27;;
42200;SDS011;27869;51.442;7.540;2023-07-29T03:45:02;2.80;;;1.25;;
42200;SDS011;27869;51.442;7.540;2023-07-29T03:47:30;4.72;;;1.02;;
42200;SDS011;27869;51.442;7.540;2023-07-29T03:49:57;3.75;;;1.30;;
42200;SDS011;27869;51.442;7.540;2023-07-29T03:52:23;2.92;;;1.10;;
42200;SDS011;27869;51.442;7.540;2023-07-29T03:54:50;4.53;;;1.33;;
42200;SDS011;27869;51.442;7.540;2023-07-29T03:57:17;2.95;;;1.20;;
42200;SDS011;27869;51.442;7.540;2023-07-29T03:59:45;7.22;;;1.40;;
42200;SDS011;27869;51.442;7.540;2023-07-29T04:02:12;5.03;;;1.42;;
42200;SDS011;27869;51.442;7.540;2023-07-29T04:04:39;5.13;;;1.33;;
42200;SDS011;27869;51.442;7.540;2023-07-29T04:07:07;5.07;;;1.80;;
42200;SDS011;27869;51.442;7.540;2023-07-29T04:09:34;6.28;;;1.70;;
42200;SDS011;27869;51.442;7.540;2023-07-29T04:12:01;5.85;;;1.40;;
42200;SDS011;27869;51.442;7.540;2023-07-29T04:14:28;4.40;;;1.45;;
42200;SDS011;27869;51.442;7.540;2023-07-29T04:16:56;5.65;;;1.48;;
42200;SDS011;27869;51.442;7.540;2023-07-29T04:19:23;5.13;;;1.42;;
42200;SDS011;27869;51.442;7.540;2023-07-29T04:21:50;5.63;;;1.70;;
42200;SDS011;27869;51.442;7.540;2023-07-29T04:24:17;6.65;;;1.60;;
42200;SDS011;27869;51.442;7.540;2023-07-29T04:26:45;4.68;;;1.83;;
42200;SDS011;27869;51.442;7.540;2023-07-29T04:29:12;5.63;;;1.63;;
42200;SDS011;27869;51.442;7.540;2023-07-29T04:31:38;4.35;;;1.60;;
42200;SDS011;27869;51.442;7.540;2023-07-29T04:34:07;4.95;;;1.70;;
42200;SDS011;27869;51.442;7.540;2023-07-29T04:36:34;6.10;;;1.80;;
42200;SDS011;27869;51.442;7.540;2023-07-29T04:39:01;4.45;;;1.83;;
42200;SDS011;27869;51.442;7.540;2023-07-29T04:41:27;5.97;;;1.80;;
42200;SDS011;27869;51.442;7.540;2023-07-29T04:43:54;4.97;;;1.73;;
42200;SDS011;27869;51.442;7.540;2023-07-29T04:46:21;5.70;;;1.92;;
42200;SDS011;27869;51.442;7.540;2023-07-29T04:48:48;5.47;;;1.90;;
42200;SDS011;27869;51.442;7.540;2023-07-29T04:51:16;4.82;;;1.80;;
42200;SDS011;27869;51.442;7.540;2023-07-29T04:53:43;7.07;;;1.83;;
42200;SDS011;27869;51.442;7.540;2023-07-29T04:56:10;4.72;;;1.70;;
42200;SDS011;27869;51.442;7.540;2023-07-29T04:58:37;5.57;;;1.73;;
42200;SDS011;27869;51.442;7.540;2023-07-29T05:01:04;5.65;;;1.80;;
42200;SDS011;27869;51.442;7.540;2023-07-29T05:03:32;6.03;;;1.80;;
42200;SDS011;27869;51.442;7.540;2023-07-29T05:05:58;3.72;;;1.73;;
42200;SDS011;27869;51.442;7.540;2023-07-29T05:08:27;5.63;;;2.10;;
42200;SDS011;27869;51.442;7.540;2023-07-29T05:10:54;4.72;;;1.98;;
42200;SDS011;27869;51.442;7.540;2023-07-29T05:13:21;7.80;;;3.00;;
42200;SDS011;27869;51.442;7.540;2023-07-29T05:15:48;4.13;;;1.92;;
42200;SDS011;27869;51.442;7.540;2023-07-29T05:18:16;6.65;;;2.20;;
42200;SDS011;27869;51.442;7.540;2023-07-29T05:20:43;9.70;;;2.70;;
42200;SDS011;27869;51.442;7.540;2023-07-29T05:23:10;7.38;;;2.55;;
42200;SDS011;27869;51.442;7.540;2023-07-29T05:25:38;7.57;;;2.45;;
42200;SDS011;27869;51.442;7.540;2023-07-29T05:28:05;5.15;;;2.33;;
42200;SDS011;27869;51.442;7.540;2023-07-29T05:30:32;5.82;;;2.20;;
42200;SDS011;27869;51.442;7.540;2023-07-29T05:33:02;6.53;;;2.25;;
42200;SDS011;27869;51.442;7.540;2023-07-29T05:35:29;6.75;;;2.42;;
42200;SDS011;27869;51.442;7.540;2023-07-29T05:37:56;8.77;;;2.72;;
42200;SDS011;27869;51.442;7.540;2023-07-29T05:40:23;8.18;;;2.72;;
42200;SDS011;27869;51.442;7.540;2023-07-29T05:42:51;7.88;;;2.55;;
42200;SDS011;27869;51.442;7.540;2023-07-29T05:45:18;7.65;;;2.33;;
42200;SDS011;27869;51.442;7.540;2023-07-29T05:47:45;6.07;;;2.20;;
42200;SDS011;27869;51.442;7.540;2023-07-29T05:50:12;8.68;;;2.25;;
42200;SDS011;27869;51.442;7.540;2023-07-29T05:52:39;8.05;;;2.50;;
42200;SDS011;27869;51.442;7.540;2023-07-29T05:55:06;7.45;;;2.50;;
42200;SDS011;27869;51.442;7.540;2023-07-29T05:57:36;7.03;;;2.53;;
42200;SDS011;27869;51.442;7.540;2023-07-29T06:00:05;7.22;;;2.47;;
42200;SDS011;27869;51.442;7.540;2023-07-29T06:02:32;8.05;;;2.70;;
42200;SDS011;27869;51.442;7.540;2023-07-29T06:04:59;6.70;;;2.38;;
42200;SDS011;27869;51.442;7.540;2023-07-29T06:07:28;6.40;;;2.33;;
42200;SDS011;27869;51.442;7.540;2023-07-29T06:09:55;8.75;;;2.45;;
42200;SDS011;27869;51.442;7.540;2023-07-29T06:12:23;9.55;;;2.50;;
42200;SDS011;27869;51.442;7.540;2023-07-29T06:14:49;9.65;;;2.30;;
42200;SDS011;27869;51.442;7.540;2023-07-29T06:17:18;7.93;;;2.67;;
42200;SDS011;27869;51.442;7.540;2023-07-29T06:19:44;9.30;;;2.83;;
42200;SDS011;27869;51.442;7.540;2023-07-29T06:22:11;10.60;;;3.13;;
42200;SDS011;27869;51.442;7.540;2023-07-29T06:24:38;10.00;;;3.22;;
42200;SDS011;27869;51.442;7.540;2023-07-29T06:27:05;10.63;;;3.03;;
42200;SDS011;27869;51.442;7.540;2023-07-29T06:29:32;7.90;;;2.80;;
42200;SDS011;27869;51.442;7.540;2023-07-29T06:31:59;9.02;;;2.72;;
42200;SDS011;27869;51.442;7.540;2023-07-29T06:34:27;7.75;;;2.60;;
42200;SDS011;27869;51.442;7.540;2023-07-29T06:36:54;8.10;;;2.70;;
42200;SDS011;27869;51.442;7.540;2023-07-29T06:39:21;9.18;;;2.20;;
42200;SDS011;27869;51.442;7.540;2023-07-29T06:41:48;8.98;;;2.35;;
42200;SDS011;27869;51.442;7.540;2023-07-29T06:44:14;7.18;;;2.17;;
42200;SDS011;27869;51.442;7.540;2023-07-29T06:46:42;7.97;;;2.42;;
42200;SDS011;27869;51.442;7.540;2023-07-29T06:49:09;7.80;;;2.40;;
42200;SDS011;27869;51.442;7.540;2023-07-29T06:51:37;7.50;;;2.58;;
42200;SDS011;27869;51.442;7.540;2023-07-29T06:54:04;7.05;;;2.22;;
42200;SDS011;27869;51.442;7.540;2023-07-29T06:56:30;7.47;;;2.58;;
42200;SDS011;27869;51.442;7.540;2023-07-29T06:58:57;7.88;;;2.50;;
42200;SDS011;27869;51.442;7.540;2023-07-29T07:01:24;7.95;;;2.58;;
42200;SDS011;27869;51.442;7.540;2023-07-29T07:03:51;7.70;;;2.55;;
42200;SDS011;27869;51.442;7.540;2023-07-29T07:06:19;8.82;;;2.63;;
42200;SDS011;27869;51.442;7.540;2023-07-29T07:08:48;8.00;;;2.97;;
42200;SDS011;27869;51.442;7.540;2023-07-29T07:11:15;6.72;;;2.20;;
42200;SDS011;27869;51.442;7.540;2023-07-29T07:13:42;9.25;;;2.03;;
42200;SDS011;27869;51.442;7.540;2023-07-29T07:16:08;7.30;;;2.25;;
42200;SDS011;27869;51.442;7.540;2023-07-29T07:18:35;6.28;;;2.08;;
42200;SDS011;27869;51.442;7.540;2023-07-29T07:21:02;7.70;;;2.20;;
42200;SDS011;27869;51.442;7.540;2023-07-29T07:23:29;7.25;;;2.03;;
42200;SDS011;27869;51.442;7.540;2023-07-29T07:25:57;7.65;;;2.10;;
42200;SDS011;27869;51.442;7.540;2023-07-29T07:28:24;8.88;;;2.13;;
42200;SDS011;27869;51.442;7.540;2023-07-29T07:30:51;7.78;;;2.13;;
42200;SDS011;27869;51.442;7.540;2023-07-29T07:33:18;10.27;;;1.80;;
42200;SDS011;27869;51.442;7.540;2023-07-29T07:35:44;6.82;;;1.70;;
42200;SDS011;27869;51.442;7.540;2023-07-29T07:38:11;8.45;;;1.80;;
42200;SDS011;27869;51.442;7.540;2023-07-29T07:40:38;7.43;;;1.73;;
42200;SDS011;27869;51.442;7.540;2023-07-29T07:43:06;5.43;;;1.50;;
42200;SDS011;27869;51.442;7.540;2023-07-29T07:45:33;6.60;;;1.60;;
42200;SDS011;27869;51.442;7.540;2023-07-29T07:48:00;7.75;;;1.30;;
42200;SDS011;27869;51.442;7.540;2023-07-29T07:50:28;5.35;;;1.45;;
42200;SDS011;27869;51.442;7.540;2023-07-29T07:52:56;5.00;;;1.27;;
42200;SDS011;27869;51.442;7.540;2023-07-29T07:55:22;6.45;;;1.40;;
42200;SDS011;27869;51.442;7.540;2023-07-29T07:57:49;4.70;;;1.17;;
42200;SDS011;27869;51.442;7.540;2023-07-29T08:00:18;5.57;;;1.60;;
42200;SDS011;27869;51.442;7.540;2023-07-29T08:02:45;7.13;;;1.27;;
42200;SDS011;27869;51.442;7.540;2023-07-29T08:05:11;5.00;;;1.25;;
42200;SDS011;27869;51.442;7.540;2023-07-29T08:07:38;4.13;;;1.10;;
42200;SDS011;27869;51.442;7.540;2023-07-29T08:10:06;5.50;;;1.23;;
42200;SDS011;27869;51.442;7.540;2023-07-29T08:12:33;3.80;;;1.13;;
42200;SDS011;27869;51.442;7.540;2023-07-29T08:15:00;2.17;;;0.65;;
42200;SDS011;27869;51.442;7.540;2023-07-29T08:17:29;4.00;;;0.93;;
42200;SDS011;27869;51.442;7.540;2023-07-29T08:19:56;2.83;;;0.82;;
42200;SDS011;27869;51.442;7.540;2023-07-29T08:22:23;2.75;;;0.90;;
42200;SDS011;27869;51.442;7.540;2023-07-29T08:24:49;4.45;;;0.90;;
42200;SDS011;27869;51.442;7.540;2023-07-29T08:27:17;2.83;;;1.00;;
42200;SDS011;27869;51.442;7.540;2023-07-29T08:29:44;3.10;;;1.00;;
42200;SDS011;27869;51.442;7.540;2023-07-29T08:32:11;4.63;;;0.77;;
42200;SDS011;27869;51.442;7.540;2023-07-29T08:34:39;2.25;;;0.70;;
42200;SDS011;27869;51.442;7.540;2023-07-29T08:37:06;1.25;;;0.70;;
42200;SDS011;27869;51.442;7.540;2023-07-29T08:39:33;3.15;;;0.73;;
42200;SDS011;27869;51.442;7.540;2023-07-29T08:42:00;2.35;;;0.80;;
42200;SDS011;27869;51.442;7.540;2023-07-29T08:44:30;1.92;;;0.90;;
42200;SDS011;27869;51.442;7.540;2023-07-29T08:47:01;3.20;;;0.80;;
42200;SDS011;27869;51.442;7.540;2023-07-29T08:49:28;3.42;;;0.73;;
42200;SDS011;27869;51.442;7.540;2023-07-29T08:51:58;2.42;;;0.70;;
42200;SDS011;27869;51.442;7.540;2023-07-29T08:56:53;3.75;;;0.70;;
42200;SDS011;27869;51.442;7.540;2023-07-29T08:59:20;2.22;;;0.90;;
42200;SDS011;27869;51.442;7.540;2023-07-29T09:01:47;2.47;;;0.82;;
42200;SDS011;27869;51.442;7.540;2023-07-29T09:04:14;2.50;;;0.80;;
42200;SDS011;27869;51.442;7.540;2023-07-29T09:06:41;4.22;;;0.90;;
42200;SDS011;27869;51.442;7.540;2023-07-29T09:11:38;2.40;;;0.70;;
42200;SDS011;27869;51.442;7.540;2023-07-29T09:14:05;1.75;;;0.90;;
42200;SDS011;27869;51.442;7.540;2023-07-29T09:16:32;1.92;;;0.70;;
42200;SDS011;27869;51.442;7.540;2023-07-29T09:19:00;1.80;;;0.70;;
42200;SDS011;27869;51.442;7.540;2023-07-29T09:23:55;2.35;;;0.90;;
42200;SDS011;27869;51.442;7.540;2023-07-29T09:26:23;1.98;;;0.70;;
42200;SDS011;27869;51.442;7.540;2023-07-29T09:28:52;2.78;;;0.75;;
42200;SDS011;27869;51.442;7.540;2023-07-29T09:31:20;5.03;;;0.95;;
42200;SDS011;27869;51.442;7.540;2023-07-29T09:33:47;1.63;;;0.82;;
42200;SDS011;27869;51.442;7.540;2023-07-29T09:36:14;2.95;;;0.77;;
42200;SDS011;27869;51.442;7.540;2023-07-29T09:38:41;2.35;;;0.85;;
42200;SDS011;27869;51.442;7.540;2023-07-29T09:41:12;2.97;;;0.80;;
42200;SDS011;27869;51.442;7.540;2023-07-29T09:43:41;2.78;;;0.95;;
42200;SDS011;27869;51.442;7.540;2023-07-29T09:46:08;2.10;;;0.73;;
42200;SDS011;27869;51.442;7.540;2023-07-29T09:48:35;2.67;;;0.80;;
42200;SDS011;27869;51.442;7.540;2023-07-29T09:51:09;2.58;;;1.10;;
42200;SDS011;27869;51.442;7.540;2023-07-29T09:53:39;1.95;;;0.90;;
42200;SDS011;27869;51.442;7.540;2023-07-29T09:56:07;3.92;;;0.80;;
42200;SDS011;27869;51.442;7.540;2023-07-29T09:58:34;4.78;;;0.88;;
42200;SDS011;27869;51.442;7.540;2023-07-29T10:01:04;2.28;;;0.90;;
42200;SDS011;27869;51.442;7.540;2023-07-29T10:03:32;3.42;;;0.82;;
42200;SDS011;27869;51.442;7.540;2023-07-29T10:06:00;2.28;;;0.73;;
42200;SDS011;27869;51.442;7.540;2023-07-29T10:08:28;2.83;;;0.98;;
42200;SDS011;27869;51.442;7.540;2023-07-29T10:10:57;3.05;;;1.00;;
42200;SDS011;27869;51.442;7.540;2023-07-29T10:13:25;2.20;;;0.90;;
42200;SDS011;27869;51.442;7.540;2023-07-29T10:15:53;3.20;;;0.95;;
42200;SDS011;27869;51.442;7.540;2023-07-29T10:18:22;3.80;;;0.80;;
42200;SDS011;27869;51.442;7.540;2023-07-29T10:28:14;2.22;;;0.80;;
42200;SDS011;27869;51.442;7.540;2023-07-29T10:30:41;4.45;;;1.15;;
42200;SDS011;27869;51.442;7.540;2023-07-29T10:33:08;3.25;;;1.00;;
42200;SDS011;27869;51.442;7.540;2023-07-29T10:35:37;3.50;;;1.13;;
42200;SDS011;27869;51.442;7.540;2023-07-29T10:38:05;4.55;;;1.08;;
42200;SDS011;27869;51.442;7.540;2023-07-29T10:40:45;4.72;;;1.10;;
42200;SDS011;27869;51.442;7.540;2023-07-29T10:43:18;2.15;;;0.90;;
42200;SDS011;27869;51.442;7.540;2023-07-29T10:45:49;4.55;;;1.52;;
42200;SDS011;27869;51.442;7.540;2023-07-29T10:51:25;1.73;;;0.90;;
42200;SDS011;27869;51.442;7.540;2023-07-29T10:53:55;2.83;;;0.98;;
42200;SDS011;27869;51.442;7.540;2023-07-29T10:56:26;2.38;;;1.00;;
42200;SDS011;27869;51.442;7.540;2023-07-29T10:58:55;4.68;;;0.95;;
42200;SDS011;27869;51.442;7.540;2023-07-29T11:01:26;3.67;;;1.00;;
42200;SDS011;27869;51.442;7.540;2023-07-29T11:09:58;3.10;;;1.00;;
42200;SDS011;27869;51.442;7.540;2023-07-29T11:12:38;2.60;;;1.13;;
42200;SDS011;27869;51.442;7.540;2023-07-29T11:15:23;3.58;;;1.10;;
42200;SDS011;27869;51.442;7.540;2023-07-29T11:17:51;3.33;;;1.02;;
42200;SDS011;27869;51.442;7.540;2023-07-29T11:20:20;6.72;;;1.30;;
42200;SDS011;27869;51.442;7.540;2023-07-29T11:22:49;5.28;;;1.23;;
42200;SDS011;27869;51.442;7.540;2023-07-29T11:25:17;3.20;;;1.10;;
42200;SDS011;27869;51.442;7.540;2023-07-29T11:27:45;3.47;;;1.10;;
42200;SDS011;27869;51.442;7.540;2023-07-29T11:30:13;2.45;;;0.93;;
42200;SDS011;27869;51.442;7.540;2023-07-29T11:32:41;3.17;;;1.20;;
42200;SDS011;27869;51.442;7.540;2023-07-29T11:35:10;3.45;;;0.90;;
42200;SDS011;27869;51.442;7.540;2023-07-29T11:37:38;3.30;;;0.90;;
42200;SDS011;27869;51.442;7.540;2023-07-29T11:40:07;5.05;;;1.23;;
42200;SDS011;27869;51.442;7.540;2023-07-29T11:42:36;1.48;;;0.75;;
42200;SDS011;27869;51.442;7.540;2023-07-29T11:45:03;3.00;;;0.98;;
42200;SDS011;27869;51.442;7.540;2023-07-29T11:47:31;2.10;;;0.82;;
42200;SDS011;27869;51.442;7.540;2023-07-29T11:50:01;4.03;;;1.23;;
42200;SDS011;27869;51.442;7.540;2023-07-29T11:52:29;3.90;;;1.20;;
42200;SDS011;27869;51.442;7.540;2023-07-29T11:54:58;3.38;;;1.10;;
42200;SDS011;27869;51.442;7.540;2023-07-29T11:57:27;4.95;;;1.10;;
42200;SDS011;27869;51.442;7.540;2023-07-29T11:59:59;3.58;;;1.08;;
42200;SDS011;27869;51.442;7.540;2023-07-29T12:02:34;4.35;;;1.10;;
42200;SDS011;27869;51.442;7.540;2023-07-29T12:05:03;2.80;;;1.00;;
42200;SDS011;27869;51.442;7.540;2023-07-29T12:07:31;4.25;;;0.98;;
42200;SDS011;27869;51.442;7.540;2023-07-29T12:09:59;4.35;;;0.80;;
42200;SDS011;27869;51.442;7.540;2023-07-29T12:12:29;4.32;;;1.08;;
42200;SDS011;27869;51.442;7.540;2023-07-29T12:14:56;3.60;;;0.98;;
42200;SDS011;27869;51.442;7.540;2023-07-29T12:17:23;6.75;;;1.40;;
42200;SDS011;27869;51.442;7.540;2023-07-29T12:19:53;3.53;;;1.30;;
42200;SDS011;27869;51.442;7.540;2023-07-29T12:22:20;4.93;;;1.17;;
42200;SDS011;27869;51.442;7.540;2023-07-29T12:24:49;4.53;;;1.00;;
42200;SDS011;27869;51.442;7.540;2023-07-29T12:27:17;2.42;;;1.10;;
42200;SDS011;27869;51.442;7.540;2023-07-29T12:29:48;3.42;;;1.10;;
42200;SDS011;27869;51.442;7.540;2023-07-29T12:32:18;4.22;;;1.30;;
42200;SDS011;27869;51.442;7.540;2023-07-29T12:34:46;6.45;;;1.27;;
42200;SDS011;27869;51.442;7.540;2023-07-29T12:37:12;4.75;;;1.40;;
42200;SDS011;27869;51.442;7.540;2023-07-29T12:39:40;4.40;;;1.20;;
42200;SDS011;27869;51.442;7.540;2023-07-29T12:42:07;5.03;;;1.35;;
42200;SDS011;27869;51.442;7.540;2023-07-29T12:44:35;4.70;;;1.15;;
42200;SDS011;27869;51.442;7.540;2023-07-29T12:47:04;4.78;;;1.33;;
42200;SDS011;27869;51.442;7.540;2023-07-29T12:49:33;4.45;;;1.15;;
42200;SDS011;27869;51.442;7.540;2023-07-29T12:52:00;3.00;;;1.23;;
42200;SDS011;27869;51.442;7.540;2023-07-29T12:54:27;3.78;;;1.08;;
42200;SDS011;27869;51.442;7.540;2023-07-29T12:56:54;4.43;;;1.10;;
42200;SDS011;27869;51.442;7.540;2023-07-29T12:59:21;5.63;;;1.60;;
42200;SDS011;27869;51.442;7.540;2023-07-29T13:01:48;3.33;;;1.20;;
42200;SDS011;27869;51.442;7.540;2023-07-29T13:04:16;3.55;;;1.13;;
42200;SDS011;27869;51.442;7.540;2023-07-29T13:06:43;3.53;;;1.25;;
42200;SDS011;27869;51.442;7.540;2023-07-29T13:09:10;4.97;;;1.40;;
42200;SDS011;27869;51.442;7.540;2023-07-29T13:11:37;5.03;;;1.38;;
42200;SDS011;27869;51.442;7.540;2023-07-29T13:14:04;5.18;;;1.50;;
42200;SDS011;27869;51.442;7.540;2023-07-29T13:16:31;5.20;;;1.33;;
42200;SDS011;27869;51.442;7.540;2023-07-29T13:18:57;5.18;;;1.30;;
42200;SDS011;27869;51.442;7.540;2023-07-29T13:21:26;5.43;;;1.40;;
42200;SDS011;27869;51.442;7.540;2023-07-29T13:23:52;5.15;;;1.52;;
42200;SDS011;27869;51.442;7.540;2023-07-29T13:26:22;8.10;;;1.40;;
42200;SDS011;27869;51.442;7.540;2023-07-29T13:28:49;3.80;;;1.40;;
42200;SDS011;27869;51.442;7.540;2023-07-29T13:31:16;6.40;;;1.67;;
42200;SDS011;27869;51.442;7.540;2023-07-29T13:33:42;5.30;;;1.55;;
42200;SDS011;27869;51.442;7.540;2023-07-29T13:36:09;4.97;;;1.42;;
42200;SDS011;27869;51.442;7.540;2023-07-29T13:38:37;4.68;;;1.52;;
42200;SDS011;27869;51.442;7.540;2023-07-29T13:41:04;5.07;;;1.50;;
42200;SDS011;27869;51.442;7.540;2023-07-29T13:43:31;4.75;;;1.52;;
42200;SDS011;27869;51.442;7.540;2023-07-29T13:45:58;3.78;;;1.40;;
42200;SDS011;27869;51.442;7.540;2023-07-29T13:48:25;5.38;;;1.70;;
42200;SDS011;27869;51.442;7.540;2023-07-29T13:50:52;4.97;;;1.63;;
42200;SDS011;27869;51.442;7.540;2023-07-29T13:53:18;3.70;;;1.33;;
42200;SDS011;27869;51.442;7.540;2023-07-29T13:55:47;6.78;;;1.63;;
42200;SDS011;27869;51.442;7.540;2023-07-29T13:58:13;4.35;;;1.30;;
42200;SDS011;27869;51.442;7.540;2023-07-29T14:00:40;5.97;;;1.63;;
42200;SDS011;27869;51.442;7.540;2023-07-29T14:03:07;5.78;;;1.65;;
42200;SDS011;27869;51.442;7.540;2023-07-29T14:05:34;6.35;;;1.60;;
42200;SDS011;27869;51.442;7.540;2023-07-29T14:08:01;6.78;;;1.63;;
42200;SDS011;27869;51.442;7.540;2023-07-29T14:10:27;4.50;;;1.52;;
42200;SDS011;27869;51.442;7.540;2023-07-29T14:12:56;5.05;;;1.67;;
42200;SDS011;27869;51.442;7.540;2023-07-29T14:15:23;4.80;;;1.45;;
42200;SDS011;27869;51.442;7.540;2023-07-29T14:17:49;5.72;;;1.60;;
42200;SDS011;27869;51.442;7.540;2023-07-29T14:20:16;7.88;;;1.70;;
42200;SDS011;27869;51.442;7.540;2023-07-29T14:22:44;4.85;;;1.60;;
42200;SDS011;27869;51.442;7.540;2023-07-29T14:25:11;4.60;;;1.60;;
42200;SDS011;27869;51.442;7.540;2023-07-29T14:27:38;4.80;;;1.55;;
42200;SDS011;27869;51.442;7.540;2023-07-29T14:30:07;9.73;;;1.80;;
42200;SDS011;27869;51.442;7.540;2023-07-29T14:32:34;4.75;;;1.63;;
42200;SDS011;27869;51.442;7.540;2023-07-29T14:35:02;7.63;;;1.60;;
42200;SDS011;27869;51.442;7.540;2023-07-29T14:37:29;6.10;;;1.52;;
42200;SDS011;27869;51.442;7.540;2023-07-29T14:39:57;5.13;;;1.50;;
42200;SDS011;27869;51.442;7.540;2023-07-29T14:42:24;8.43;;;1.73;;
42200;SDS011;27869;51.442;7.540;2023-07-29T14:44:51;6.38;;;1.60;;
42200;SDS011;27869;51.442;7.540;2023-07-29T14:47:19;5.07;;;1.40;;
42200;SDS011;27869;51.442;7.540;2023-07-29T14:49:46;6.30;;;1.70;;
42200;SDS011;27869;51.442;7.540;2023-07-29T14:52:13;5.30;;;1.58;;
42200;SDS011;27869;51.442;7.540;2023-07-29T14:54:40;4.18;;;1.50;;
42200;SDS011;27869;51.442;7.540;2023-07-29T14:57:06;6.20;;;1.63;;
42200;SDS011;27869;51.442;7.540;2023-07-29T14:59:34;8.02;;;1.80;;
42200;SDS011;27869;51.442;7.540;2023-07-29T15:02:01;9.73;;;1.40;;
42200;SDS011;27869;51.442;7.540;2023-07-29T15:04:29;5.45;;;1.60;;
42200;SDS011;27869;51.442;7.540;2023-07-29T15:06:55;4.82;;;1.50;;
42200;SDS011;27869;51.442;7.540;2023-07-29T15:09:23;6.93;;;1.55;;
42200;SDS011;27869;51.442;7.540;2023-07-29T15:11:50;4.82;;;1.23;;
42200;SDS011;27869;51.442;7.540;2023-07-29T15:14:17;7.13;;;1.40;;
42200;SDS011;27869;51.442;7.540;2023-07-29T15:16:44;4.97;;;1.23;;
42200;SDS011;27869;51.442;7.540;2023-07-29T15:19:10;5.18;;;1.48;;